createdAt,value
2022-09-23T00:01:10.680Z,8.43
2022-09-23T00:03:39.765Z,8.44
2022-09-23T00:06:10.632Z,8.41
2022-09-23T00:08:37.765Z,8.36
2022-09-23T00:11:12.316Z,8.36
2022-09-23T00:13:41.388Z,8.35
2022-09-23T00:16:14.388Z,8.34
2022-09-23T00:18:41.992Z,8.27
2022-09-23T00:21:13.904Z,8.20
2022-09-23T00:23:42.972Z,8.18
2022-09-23T00:26:14.088Z,8.19
2022-09-23T00:28:40.673Z,8.17
2022-09-23T00:31:13.523Z,8.13
2022-09-23T00:33:42.958Z,8.13
2022-09-23T00:36:15.571Z,8.12
2022-09-23T00:38:43.367Z,8.09
2022-09-23T00:41:11.286Z,8.02
2022-09-23T00:43:50.992Z,7.96
2022-09-23T00:46:26.490Z,7.92
2022-09-23T00:49:00.026Z,7.90
2022-09-23T00:51:34.732Z,7.90
2022-09-23T00:54:02.756Z,7.87
2022-09-23T00:56:31.028Z,7.83
2022-09-23T00:58:57.871Z,7.77
2022-09-23T01:01:25.592Z,7.77
2022-09-23T01:03:54.570Z,7.77
2022-09-23T01:06:21.504Z,7.74
2022-09-23T01:08:48.461Z,7.72
2022-09-23T01:11:23.043Z,7.69
2022-09-23T01:14:19.055Z,7.64
2022-09-23T01:17:19.369Z,7.59
2022-09-23T01:20:02.353Z,7.52
2022-09-23T01:22:57.142Z,7.44
2022-09-23T01:25:23.520Z,7.41
2022-09-23T01:27:59.310Z,7.42
2022-09-23T01:30:48.185Z,7.43
2022-09-23T01:33:30.439Z,7.41
2022-09-23T01:36:08.631Z,7.43
2022-09-23T01:38:59.121Z,7.47
2022-09-23T01:41:44.225Z,7.51
2022-09-23T01:44:22.950Z,7.53
2022-09-23T01:46:54.738Z,7.54
2022-09-23T01:49:28.876Z,7.53
2022-09-23T01:52:00.970Z,7.53
2022-09-23T01:54:39.623Z,7.48
2022-09-23T01:57:18.775Z,7.47
2022-09-23T01:59:55.985Z,7.45
2022-09-23T02:02:31.584Z,7.45
2022-09-23T02:05:04.456Z,7.47
2022-09-23T02:07:40.026Z,7.51
2022-09-23T02:10:14.053Z,7.49
2022-09-23T02:12:49.309Z,7.44
2022-09-23T02:15:19.228Z,7.39
2022-09-23T02:17:58.799Z,7.36
2022-09-23T02:20:30.034Z,7.39
2022-09-23T02:23:03.082Z,7.38
2022-09-23T02:25:39.986Z,7.38
2022-09-23T02:28:19.231Z,7.38
2022-09-23T02:30:52.790Z,7.34
2022-09-23T02:33:36.117Z,7.26
2022-09-23T02:36:12.485Z,7.20
2022-09-23T02:38:52.258Z,7.15
2022-09-23T02:41:46.178Z,7.08
2022-09-23T02:44:16.475Z,7.04
2022-09-23T02:46:43.966Z,7.03
2022-09-23T02:49:13.995Z,7.01
2022-09-23T02:51:40.946Z,7.00
2022-09-23T02:54:10.728Z,6.99
2022-09-23T02:56:37.468Z,6.99
2022-09-23T02:59:04.329Z,6.96
2022-09-23T03:02:01.745Z,6.95
2022-09-23T03:04:50.423Z,6.97
2022-09-23T03:07:24.739Z,6.99
2022-09-23T03:10:26.155Z,7.00
2022-09-23T03:13:17.340Z,7.03
2022-09-23T03:15:57.286Z,7.05
2022-09-23T03:18:31.696Z,7.07
2022-09-23T03:21:12.069Z,7.06
2022-09-23T03:23:41.811Z,7.07
2022-09-23T03:26:17.525Z,7.07
2022-09-23T03:28:45.592Z,7.07
2022-09-23T03:31:14.151Z,7.09
2022-09-23T03:33:47.036Z,7.07
2022-09-23T03:36:36.320Z,7.00
2022-09-23T03:39:08.483Z,6.90
2022-09-23T03:41:40.225Z,6.86
2022-09-23T03:44:08.096Z,6.86
2022-09-23T03:46:36.166Z,6.89
2022-09-23T03:49:15.386Z,6.92
2022-09-23T03:51:44.665Z,6.92
2022-09-23T03:54:11.756Z,6.92
2022-09-23T03:56:38.300Z,6.91
2022-09-23T03:59:04.749Z,6.88
2022-09-23T04:01:31.248Z,6.84
2022-09-23T04:03:57.898Z,6.83
2022-09-23T04:06:24.423Z,6.85
2022-09-23T04:08:50.877Z,6.86
2022-09-23T04:11:17.324Z,6.87
2022-09-23T04:13:43.829Z,6.88
2022-09-23T04:16:10.353Z,6.85
2022-09-23T04:18:36.842Z,6.79
2022-09-23T04:21:03.570Z,6.77
2022-09-23T04:23:35.172Z,6.75
2022-09-23T04:26:01.729Z,6.73
2022-09-23T04:28:28.244Z,6.70
2022-09-23T04:30:56.119Z,6.69
2022-09-23T04:33:22.665Z,6.65
2022-09-23T04:35:53.321Z,6.66
2022-09-23T04:38:19.823Z,6.65
2022-09-23T04:40:46.597Z,6.65
2022-09-23T04:43:15.792Z,6.61
2022-09-23T04:45:43.488Z,6.57
2022-09-23T04:48:11.311Z,6.53
2022-09-23T04:50:37.829Z,6.47
2022-09-23T04:53:04.944Z,6.41
2022-09-23T04:55:32.032Z,6.41
2022-09-23T04:57:58.801Z,6.42
2022-09-23T05:00:26.926Z,6.41
2022-09-23T05:02:53.384Z,6.40
2022-09-23T05:05:20.973Z,6.39
2022-09-23T05:07:48.470Z,6.40
2022-09-23T05:10:15.887Z,6.43
2022-09-23T05:12:42.385Z,6.46
2022-09-23T05:15:09.127Z,6.52
2022-09-23T05:17:37.318Z,6.54
2022-09-23T05:20:04.620Z,6.55
2022-09-23T05:22:31.386Z,6.55
2022-09-23T05:24:59.805Z,6.57
2022-09-23T05:27:26.359Z,6.57
2022-09-23T05:29:53.076Z,6.58
2022-09-23T05:32:20.289Z,6.59
2022-09-23T05:34:46.879Z,6.61
2022-09-23T05:37:13.370Z,6.63
2022-09-23T05:39:39.836Z,6.66
2022-09-23T05:42:06.823Z,6.67
2022-09-23T05:44:33.360Z,6.72
2022-09-23T05:46:59.895Z,6.75
2022-09-23T05:49:42.626Z,6.79
2022-09-23T05:52:12.827Z,6.82
2022-09-23T05:54:40.208Z,6.83
2022-09-23T05:57:06.724Z,6.83
2022-09-23T05:59:33.283Z,6.82
2022-09-23T06:02:01.216Z,6.81
2022-09-23T06:04:27.731Z,6.85
2022-09-23T06:06:54.194Z,6.89
2022-09-23T06:09:20.688Z,6.91
2022-09-23T06:11:47.224Z,6.95
2022-09-23T06:14:14.886Z,7.02
2022-09-23T06:16:41.650Z,7.07
2022-09-23T06:19:08.179Z,7.12
2022-09-23T06:21:37.844Z,7.15
2022-09-23T06:24:05.983Z,7.20
2022-09-23T06:26:34.849Z,7.27
2022-09-23T06:29:02.754Z,7.28
2022-09-23T06:31:29.533Z,7.29
2022-09-23T06:34:06.557Z,7.33
2022-09-23T06:36:43.144Z,7.33
2022-09-23T06:39:10.173Z,7.37
2022-09-23T06:41:36.682Z,7.43
2022-09-23T06:44:04.349Z,7.43
2022-09-23T06:46:31.843Z,7.44
2022-09-23T06:48:58.918Z,7.47
2022-09-23T06:51:25.459Z,7.49
2022-09-23T06:53:52.543Z,7.53
2022-09-23T06:56:21.009Z,7.58
2022-09-23T06:58:47.761Z,7.66
2022-09-23T07:01:16.818Z,7.75
2022-09-23T07:03:44.916Z,7.81
2022-09-23T07:06:11.800Z,7.89
2022-09-23T07:08:38.460Z,8.00
2022-09-23T07:11:07.001Z,8.09
2022-09-23T07:13:33.642Z,8.22
2022-09-23T07:16:02.062Z,8.34
2022-09-23T07:18:36.204Z,8.48
2022-09-23T07:21:15.598Z,8.61
2022-09-23T07:23:43.335Z,8.69
2022-09-23T07:26:10.290Z,8.76
2022-09-23T07:28:37.173Z,8.84
2022-09-23T07:31:09.490Z,8.89
2022-09-23T07:33:38.101Z,8.91
2022-09-23T07:36:10.612Z,8.95
2022-09-23T07:38:40.497Z,9.00
2022-09-23T07:41:13.260Z,9.05
2022-09-23T07:43:41.141Z,9.13
2022-09-23T07:46:11.055Z,9.20
2022-09-23T07:48:38.118Z,9.30
2022-09-23T07:51:38.663Z,9.42
2022-09-23T07:54:11.937Z,9.47
2022-09-23T07:56:38.985Z,9.48
2022-09-23T07:59:08.802Z,9.52
2022-09-23T08:01:38.848Z,9.58
2022-09-23T08:04:08.927Z,9.72
2022-09-23T08:06:36.759Z,9.83
2022-09-23T08:09:03.809Z,9.93
2022-09-23T08:11:31.211Z,10.02
2022-09-23T08:13:57.682Z,10.16
2022-09-23T08:16:24.264Z,10.26
2022-09-23T08:18:50.822Z,10.40
2022-09-23T08:21:22.064Z,10.52
2022-09-23T08:23:49.430Z,10.68
2022-09-23T08:26:20.771Z,10.85
2022-09-23T08:28:49.445Z,11.00
2022-09-23T08:31:16.020Z,11.17
2022-09-23T08:33:43.131Z,11.36
2022-09-23T08:36:09.655Z,11.55
2022-09-23T08:38:36.199Z,11.71
2022-09-23T08:41:16.438Z,11.87
2022-09-23T08:43:49.601Z,12.04
2022-09-23T08:46:24.489Z,12.18
2022-09-23T08:48:51.675Z,12.32
2022-09-23T08:51:29.283Z,12.45
2022-09-23T08:53:55.854Z,12.56
2022-09-23T08:56:24.056Z,12.69
2022-09-23T08:59:30.001Z,12.82
2022-09-23T09:02:05.440Z,12.93
2022-09-23T09:04:45.558Z,13.01
2022-09-23T09:07:36.650Z,13.10
2022-09-23T09:10:16.814Z,13.23
2022-09-23T09:12:53.928Z,13.41
2022-09-23T09:15:25.155Z,13.56
2022-09-23T09:18:12.993Z,13.68
2022-09-23T09:20:51.738Z,13.82
2022-09-23T09:23:43.057Z,13.99
2022-09-23T09:26:19.558Z,14.21
2022-09-23T09:29:06.536Z,14.34
2022-09-23T09:31:47.668Z,14.48
2022-09-23T09:34:33.053Z,14.59
2022-09-23T09:37:07.210Z,14.70
2022-09-23T09:39:35.494Z,14.82
2022-09-23T09:42:03.373Z,14.96
2022-09-23T09:44:45.898Z,15.08
2022-09-23T09:47:28.615Z,15.26
2022-09-23T09:50:10.940Z,15.48
2022-09-23T09:52:38.456Z,15.63
2022-09-23T09:55:14.096Z,15.74
2022-09-23T09:58:04.053Z,15.89
2022-09-23T10:00:30.509Z,16.01
2022-09-23T10:03:20.169Z,16.10
2022-09-23T10:05:46.765Z,16.27
2022-09-23T10:08:24.767Z,16.46
2022-09-23T10:11:05.401Z,16.62
2022-09-23T10:13:32.072Z,16.74
2022-09-23T10:16:03.890Z,16.81
2022-09-23T10:18:50.801Z,16.95
2022-09-23T10:21:25.458Z,17.07
2022-09-23T10:23:58.026Z,17.23
2022-09-23T10:26:34.248Z,17.43
2022-09-23T10:29:24.733Z,17.65
2022-09-23T10:32:13.836Z,17.77
2022-09-23T10:34:45.025Z,17.88
2022-09-23T10:37:18.103Z,18.01
2022-09-23T10:40:03.305Z,18.10
2022-09-23T10:43:10.204Z,18.22
2022-09-23T10:45:59.599Z,18.30
2022-09-23T10:48:44.939Z,18.45
2022-09-23T10:51:25.484Z,18.58
2022-09-23T10:53:58.478Z,18.63
2022-09-23T10:56:30.904Z,18.72
2022-09-23T10:59:30.235Z,18.84
2022-09-23T11:02:22.572Z,18.94
2022-09-23T11:05:15.299Z,19.03
2022-09-23T11:08:00.077Z,19.11
2022-09-23T11:10:45.905Z,19.16
2022-09-23T11:13:30.515Z,19.33
2022-09-23T11:16:17.217Z,19.47
2022-09-23T11:19:15.847Z,19.66
2022-09-23T11:21:49.702Z,19.84
2022-09-23T11:24:42.968Z,19.95
2022-09-23T11:27:28.056Z,19.94
2022-09-23T11:30:12.653Z,19.96
2022-09-23T11:35:53.365Z,20.17
2022-09-23T11:38:25.989Z,20.18
2022-09-23T11:40:58.859Z,20.18
2022-09-23T11:43:33.464Z,20.17
2022-09-23T11:46:09.454Z,20.19
2022-09-23T11:48:59.564Z,20.23
2022-09-23T11:51:38.382Z,20.28
2022-09-23T11:54:19.813Z,20.37
2022-09-23T11:56:52.637Z,20.46
2022-09-23T11:59:40.637Z,20.52
2022-09-23T12:02:33.708Z,20.58
2022-09-23T12:05:15.807Z,20.49
2022-09-23T12:07:56.575Z,20.45
2022-09-23T12:10:32.982Z,20.35
2022-09-23T12:13:23.804Z,20.37
2022-09-23T12:16:29.200Z,20.38
2022-09-23T12:19:27.944Z,20.44
2022-09-23T12:22:31.399Z,20.44
2022-09-23T12:25:18.775Z,20.44
2022-09-23T12:27:50.259Z,20.42
2022-09-23T12:30:20.282Z,20.37
2022-09-23T12:32:47.416Z,20.39
2022-09-23T12:35:37.667Z,20.43
2022-09-23T12:38:13.394Z,20.44
2022-09-23T12:40:43.920Z,20.41
2022-09-23T12:43:30.576Z,20.40
2022-09-23T12:46:21.672Z,20.42
2022-09-23T12:48:58.018Z,20.39
2022-09-23T12:51:26.257Z,20.31
2022-09-23T12:53:56.190Z,20.31
2022-09-23T12:56:24.336Z,20.36
2022-09-23T12:58:50.912Z,20.39
2022-09-23T13:01:21.337Z,20.47
2022-09-23T13:04:11.389Z,20.64
2022-09-23T13:07:00.651Z,20.88
2022-09-23T13:09:33.405Z,21.06
2022-09-23T13:12:08.360Z,21.01
2022-09-23T13:14:37.371Z,20.91
2022-09-23T13:17:04.526Z,20.88
2022-09-23T13:19:35.377Z,20.76
2022-09-23T13:22:11.163Z,20.64
2022-09-23T13:24:43.066Z,20.53
2022-09-23T13:27:23.547Z,20.50
2022-09-23T13:30:21.208Z,20.49
2022-09-23T13:33:02.716Z,20.43
2022-09-23T13:35:35.361Z,20.33
2022-09-23T13:38:20.977Z,20.29
2022-09-23T13:40:47.634Z,20.28
2022-09-23T13:43:23.762Z,20.43
2022-09-23T13:45:51.067Z,20.67
2022-09-23T13:48:20.373Z,20.76
2022-09-23T13:50:53.322Z,20.78
2022-09-23T13:53:22.780Z,20.72
2022-09-23T13:55:59.576Z,20.65
2022-09-23T13:58:29.929Z,20.75
2022-09-23T14:00:56.631Z,20.85
2022-09-23T14:03:37.128Z,20.87
2022-09-23T14:06:14.552Z,20.87
2022-09-23T14:08:45.551Z,20.76
2022-09-23T14:11:17.350Z,20.65
2022-09-23T14:13:45.655Z,20.53
2022-09-23T14:16:15.002Z,20.42
2022-09-23T14:18:45.864Z,20.31
2022-09-23T14:21:34.935Z,20.23
2022-09-23T14:24:18.838Z,20.14
2022-09-23T14:26:52.071Z,20.13
2022-09-23T14:29:21.207Z,20.11
2022-09-23T14:32:00.603Z,20.03
2022-09-23T14:35:00.983Z,19.96
2022-09-23T14:37:55.151Z,19.89
2022-09-23T14:40:35.067Z,19.83
2022-09-23T14:43:24.977Z,19.79
2022-09-23T14:45:56.876Z,19.74
2022-09-23T14:48:32.989Z,19.69
2022-09-23T14:51:02.025Z,19.65
2022-09-23T14:53:41.468Z,19.59
2022-09-23T14:56:07.886Z,19.53
2022-09-23T14:58:52.003Z,19.46
2022-09-23T15:01:39.407Z,19.36
2022-09-23T15:04:10.787Z,19.33
2022-09-23T15:06:39.213Z,19.28
2022-09-23T15:09:09.551Z,19.23
2022-09-23T15:11:36.181Z,19.17
2022-09-23T15:14:36.019Z,19.15
2022-09-23T15:16:50.773Z,19.11
2022-09-23T15:19:20.351Z,19.05
2022-09-23T15:21:52.807Z,19.03
2022-09-23T15:24:41.518Z,19.01
2022-09-23T15:27:27.173Z,19.03
2022-09-23T15:29:54.087Z,19.02
2022-09-23T15:32:22.069Z,18.99
2022-09-23T15:34:50.402Z,18.96
2022-09-23T15:37:17.732Z,18.95
2022-09-23T15:39:44.288Z,18.96
2022-09-23T15:42:11.753Z,18.95
2022-09-23T15:44:38.239Z,18.94
2022-09-23T15:47:05.058Z,18.91
2022-09-23T15:49:36.680Z,18.88
2022-09-23T15:52:04.805Z,18.84
2022-09-23T15:54:35.130Z,18.80
2022-09-23T15:57:02.026Z,18.76
2022-09-23T15:59:31.031Z,18.73
2022-09-23T16:02:01.753Z,18.71
2022-09-23T16:04:28.453Z,18.66
2022-09-23T16:06:54.943Z,18.63
2022-09-23T16:09:21.428Z,18.58
2022-09-23T16:11:49.644Z,18.51
2022-09-23T16:14:17.503Z,18.49
2022-09-23T16:16:45.343Z,18.44
2022-09-23T16:19:12.344Z,18.42
2022-09-23T16:21:40.880Z,18.39
2022-09-23T16:24:18.543Z,18.36
2022-09-23T16:26:47.089Z,18.34
2022-09-23T16:29:13.780Z,18.28
2022-09-23T16:31:40.541Z,18.23
2022-09-23T16:34:07.161Z,18.19
2022-09-23T16:36:38.089Z,18.13
2022-09-23T16:39:07.418Z,18.06
2022-09-23T16:41:34.190Z,18.01
2022-09-23T16:44:04.291Z,17.95
2022-09-23T16:46:31.633Z,17.88
2022-09-23T16:48:58.830Z,17.79
2022-09-23T16:51:27.682Z,17.73
2022-09-23T16:53:56.079Z,17.65
2022-09-23T16:56:28.390Z,17.54
2022-09-23T16:58:55.602Z,17.46
2022-09-23T17:01:45.893Z,17.40
2022-09-23T17:04:14.038Z,17.33
2022-09-23T17:06:50.819Z,17.28
2022-09-23T17:09:19.833Z,17.22
2022-09-23T17:11:51.918Z,17.15
2022-09-23T17:14:18.397Z,17.08
2022-09-23T17:16:45.015Z,17.04
2022-09-23T17:19:12.369Z,16.97
2022-09-23T17:21:39.128Z,16.92
2022-09-23T17:24:06.081Z,16.87
2022-09-23T17:26:32.738Z,16.80
2022-09-23T17:29:00.290Z,16.74
2022-09-23T17:31:26.874Z,16.67
2022-09-23T17:33:53.609Z,16.59
2022-09-23T17:36:21.229Z,16.50
2022-09-23T17:38:48.899Z,16.45
2022-09-23T17:41:17.195Z,16.37
2022-09-23T17:43:44.674Z,16.28
2022-09-23T17:46:14.539Z,16.20
2022-09-23T17:48:41.660Z,16.12
2022-09-23T17:51:13.800Z,16.05
2022-09-23T17:53:42.305Z,16.00
2022-09-23T17:56:24.836Z,15.94
2022-09-23T17:58:53.262Z,15.90
2022-09-23T18:01:22.495Z,15.86
2022-09-23T18:03:54.132Z,15.82
2022-09-23T18:06:22.988Z,15.80
2022-09-23T18:08:50.926Z,15.79
2022-09-23T18:11:23.428Z,15.74
2022-09-23T18:14:00.418Z,15.66
2022-09-23T18:16:29.064Z,15.59
2022-09-23T18:18:57.858Z,15.53
2022-09-23T18:21:26.866Z,15.48
2022-09-23T18:23:53.297Z,15.42
2022-09-23T18:26:24.164Z,15.37
2022-09-23T18:28:53.642Z,15.33
2022-09-23T18:31:20.517Z,15.30
2022-09-23T18:33:51.461Z,15.25
2022-09-23T18:36:19.500Z,15.19
2022-09-23T18:38:46.646Z,15.12
2022-09-23T18:41:13.929Z,15.06
2022-09-23T18:43:43.202Z,14.99
2022-09-23T18:46:18.290Z,14.91
2022-09-23T18:49:03.977Z,14.83
2022-09-23T18:51:32.123Z,14.74
2022-09-23T18:54:00.446Z,14.67
2022-09-23T18:56:37.194Z,14.61
2022-09-23T18:59:06.260Z,14.59
2022-09-23T19:01:33.586Z,14.55
2022-09-23T19:04:02.167Z,14.49
2022-09-23T19:06:29.229Z,14.46
2022-09-23T19:08:55.884Z,14.42
2022-09-23T19:11:23.777Z,14.34
2022-09-23T19:14:03.098Z,14.27
2022-09-23T19:16:31.735Z,14.20
2022-09-23T19:18:59.525Z,14.17
2022-09-23T19:21:27.230Z,14.13
2022-09-23T19:23:56.120Z,14.13
2022-09-23T19:26:26.119Z,14.11
2022-09-23T19:28:58.162Z,14.10
2022-09-23T19:31:26.975Z,14.07
2022-09-23T19:33:56.340Z,14.04
2022-09-23T19:36:28.898Z,14.00
2022-09-23T19:38:57.822Z,13.94
2022-09-23T19:41:26.312Z,13.85
2022-09-23T19:43:53.206Z,13.78
2022-09-23T19:46:20.211Z,13.72
2022-09-23T19:48:47.000Z,13.65
2022-09-23T19:51:13.461Z,13.58
2022-09-23T19:53:42.980Z,13.54
2022-09-23T19:56:09.484Z,13.50
2022-09-23T19:58:36.034Z,13.47
2022-09-23T20:01:07.428Z,13.42
2022-09-23T20:03:34.108Z,13.38
2022-09-23T20:06:00.577Z,13.33
2022-09-23T20:08:27.199Z,13.30
2022-09-23T20:10:53.725Z,13.26
2022-09-23T20:13:20.309Z,13.24
2022-09-23T20:15:48.335Z,13.22
2022-09-23T20:18:15.383Z,13.22
2022-09-23T20:20:42.317Z,13.22
2022-09-23T20:23:10.915Z,13.18
2022-09-23T20:25:56.159Z,13.13
2022-09-23T20:28:25.584Z,13.11
2022-09-23T20:30:58.360Z,13.10
2022-09-23T20:33:24.892Z,13.10
2022-09-23T20:35:53.137Z,13.10
2022-09-23T20:38:19.705Z,13.15
2022-09-23T20:40:55.677Z,13.15
2022-09-23T20:43:22.314Z,13.11
2022-09-23T20:45:53.285Z,13.08
2022-09-23T20:48:21.014Z,13.04
2022-09-23T20:50:47.552Z,13.01
2022-09-23T20:53:14.014Z,12.99
2022-09-23T20:55:55.283Z,13.01
2022-09-23T20:58:29.267Z,13.02
2022-09-23T21:01:16.590Z,13.04
2022-09-23T21:03:45.812Z,13.04
2022-09-23T21:06:15.057Z,13.06
2022-09-23T21:08:44.365Z,13.06
2022-09-23T21:11:14.861Z,13.05
2022-09-23T21:13:46.813Z,12.97
2022-09-23T21:16:16.155Z,12.87
2022-09-23T21:18:43.925Z,12.77
2022-09-23T21:21:12.247Z,12.71
2022-09-23T21:23:39.657Z,12.70
2022-09-23T21:26:14.033Z,12.70
2022-09-23T21:28:42.915Z,12.70
2022-09-23T21:31:13.211Z,12.69
2022-09-23T21:33:39.776Z,12.69
2022-09-23T21:36:07.305Z,12.70
2022-09-23T21:38:35.761Z,12.73
2022-09-23T21:41:05.178Z,12.74
2022-09-23T21:43:34.022Z,12.77
2022-09-23T21:46:03.441Z,12.80
2022-09-23T21:48:31.764Z,12.83
2022-09-23T21:51:00.990Z,12.84
2022-09-23T21:53:29.477Z,12.84
2022-09-23T21:56:06.983Z,12.81
2022-09-23T21:58:35.201Z,12.77
2022-09-23T22:01:06.271Z,12.77
2022-09-23T22:03:32.986Z,12.79
2022-09-23T22:06:02.487Z,12.77
2022-09-23T22:08:36.717Z,12.72
2022-09-23T22:11:29.243Z,12.72
2022-09-23T22:13:56.928Z,12.73
2022-09-23T22:16:26.642Z,12.74
2022-09-23T22:18:57.079Z,12.77
2022-09-23T22:21:25.426Z,12.80
2022-09-23T22:23:53.154Z,12.80
2022-09-23T22:26:20.303Z,12.76
2022-09-23T22:29:05.099Z,12.71
2022-09-23T22:31:50.038Z,12.66
2022-09-23T22:34:37.641Z,12.61
2022-09-23T22:37:03.901Z,12.61
2022-09-23T22:39:30.463Z,12.61
2022-09-23T22:41:58.406Z,12.61
2022-09-23T22:44:25.534Z,12.60
2022-09-23T22:46:52.589Z,12.58
2022-09-23T22:49:19.794Z,12.57
2022-09-23T22:51:46.352Z,12.57
2022-09-23T22:54:12.986Z,12.55
2022-09-23T22:56:39.507Z,12.51
2022-09-23T22:59:07.771Z,12.51
2022-09-23T23:01:35.392Z,12.49
2022-09-23T23:04:02.577Z,12.45
2022-09-23T23:06:35.883Z,12.43
2022-09-23T23:09:07.394Z,12.37
2022-09-23T23:11:34.322Z,12.33
2022-09-23T23:14:02.264Z,12.30
2022-09-23T23:16:33.649Z,12.27
2022-09-23T23:19:01.257Z,12.23
2022-09-23T23:21:27.839Z,12.18
2022-09-23T23:23:54.290Z,12.13
2022-09-23T23:26:23.621Z,12.11
2022-09-23T23:28:51.569Z,12.06
2022-09-23T23:31:19.909Z,12.01
2022-09-23T23:33:47.631Z,11.97
2022-09-23T23:36:16.262Z,11.95
2022-09-23T23:38:44.570Z,11.91
2022-09-23T23:41:14.388Z,11.87
2022-09-23T23:43:42.915Z,11.84
2022-09-23T23:46:10.345Z,11.80
2022-09-23T23:48:38.288Z,11.78
2022-09-23T23:51:07.521Z,11.74
2022-09-23T23:53:36.300Z,11.71
2022-09-23T23:56:04.936Z,11.66
2022-09-23T23:58:31.878Z,11.61
